RYS5AK EGGD-EPKK
Flight info
| Callsign | RYS5AK |
|---|---|
| Flight time | 1h 57m |
| Altitude | 39000 |
| Route | HAWFA DCT BSO DCT LAM DCT RTM DCT OSB DCT MAG DCT LASIS DCT GODLO DCT MOFKE |
| Aircraft | B7M8/M-SADE2E3GIJ4J7RWZ/LB1D1 |
Departure
| Time | 2026-05-01 12:09 |
|---|---|
| Airport | Bristol Airport (EGGD) |
Arrival
| Time | 2026-05-01 14:07 |
|---|---|
| Airport | Kraków John Paul II International Airport (EPKK) |
| Time | Latitude | Longitude | Altitude | Speed | Heading |
|---|---|---|---|---|---|
| 2026-05-01 11:48 | 51.38549 | -2.71467 | 595 ft | 0 kts | 356° |
| 2026-05-01 11:59 | 51.38544 | -2.71467 | 595 ft | 2 kts | 356° |
| 2026-05-01 12:00 | 51.38514 | -2.71471 | 596 ft | 2 kts | 31° |
| 2026-05-01 12:00 | 51.38504 | -2.71487 | 596 ft | 2 kts | 57° |
| 2026-05-01 12:00 | 51.38498 | -2.71517 | 597 ft | 1 kts | 89° |
| 2026-05-01 12:01 | 51.38498 | -2.71521 | 597 ft | 0 kts | 87° |
| 2026-05-01 12:04 | 51.38498 | -2.71512 | 597 ft | 2 kts | 87° |
| 2026-05-01 12:04 | 51.38500 | -2.71462 | 596 ft | 4 kts | 88° |
| 2026-05-01 12:04 | 51.38490 | -2.71423 | 597 ft | 3 kts | 136° |
| 2026-05-01 12:05 | 51.38470 | -2.71400 | 598 ft | 4 kts | 142° |
| 2026-05-01 12:05 | 51.38453 | -2.71235 | 599 ft | 10 kts | 86° |
| 2026-05-01 12:05 | 51.38457 | -2.71138 | 601 ft | 8 kts | 86° |
| 2026-05-01 12:06 | 51.38461 | -2.71040 | 601 ft | 9 kts | 86° |
| 2026-05-01 12:06 | 51.38464 | -2.70931 | 600 ft | 10 kts | 87° |
| 2026-05-01 12:06 | 51.38469 | -2.70817 | 601 ft | 9 kts | 86° |
| 2026-05-01 12:06 | 51.38472 | -2.70721 | 601 ft | 7 kts | 86° |
| 2026-05-01 12:07 | 51.38475 | -2.70644 | 601 ft | 6 kts | 86° |
| 2026-05-01 12:07 | 51.38473 | -2.70568 | 602 ft | 7 kts | 108° |
| 2026-05-01 12:07 | 51.38434 | -2.70516 | 604 ft | 8 kts | 164° |
| 2026-05-01 12:07 | 51.38368 | -2.70489 | 606 ft | 11 kts | 165° |
| 2026-05-01 12:08 | 51.38326 | -2.70504 | 606 ft | 5 kts | 244° |
| 2026-05-01 12:08 | 51.38322 | -2.70544 | 606 ft | 0 kts | 266° |
| 2026-05-01 12:08 | 51.38322 | -2.70556 | 606 ft | 8 kts | 266° |
| 2026-05-01 12:08 | 51.38302 | -2.71077 | 604 ft | 82 kts | 266° |
| 2026-05-01 12:09 | 51.38254 | -2.72324 | 615 ft | 141 kts | 265° |
| 2026-05-01 12:09 | 51.38192 | -2.74016 | 994 ft | 155 kts | 268° |
| 2026-05-01 12:09 | 51.38195 | -2.75749 | 1611 ft | 158 kts | 269° |
| 2026-05-01 12:09 | 51.38189 | -2.77516 | 2208 ft | 162 kts | 266° |
| 2026-05-01 12:10 | 51.38125 | -2.79365 | 2530 ft | 170 kts | 264° |
| 2026-05-01 12:10 | 51.37902 | -2.83596 | 3009 ft | 215 kts | 264° |
| 2026-05-01 12:10 | 51.37793 | -2.86045 | 3611 ft | 224 kts | 266° |
| 2026-05-01 12:11 | 51.39356 | -2.90130 | 5020 ft | 243 kts | 336° |
| 2026-05-01 12:11 | 51.41054 | -2.90262 | 5675 ft | 258 kts | 13° |
| 2026-05-01 12:11 | 51.42620 | -2.88787 | 6002 ft | 276 kts | 45° |
| 2026-05-01 12:12 | 51.43514 | -2.86101 | 5974 ft | 272 kts | 82° |
| 2026-05-01 12:12 | 51.43480 | -2.83142 | 6019 ft | 268 kts | 100° |
| 2026-05-01 12:12 | 51.43264 | -2.80171 | 5986 ft | 270 kts | 94° |
| 2026-05-01 12:12 | 51.43498 | -2.77104 | 6004 ft | 288 kts | 70° |
| 2026-05-01 12:13 | 51.44474 | -2.74276 | 5989 ft | 291 kts | 48° |
| 2026-05-01 12:13 | 51.45953 | -2.72131 | 5993 ft | 288 kts | 32° |
| 2026-05-01 12:13 | 51.47601 | -2.70331 | 5989 ft | 287 kts | 31° |
| 2026-05-01 12:13 | 51.49255 | -2.68513 | 5991 ft | 287 kts | 32° |
| 2026-05-01 12:14 | 51.50880 | -2.66673 | 6030 ft | 292 kts | 36° |
| 2026-05-01 12:14 | 51.52308 | -2.64309 | 6741 ft | 296 kts | 52° |
| 2026-05-01 12:14 | 51.53332 | -2.61448 | 7384 ft | 302 kts | 68° |
| 2026-05-01 12:14 | 51.53884 | -2.58191 | 8061 ft | 305 kts | 81° |
| 2026-05-01 12:15 | 51.54161 | -2.54794 | 8692 ft | 309 kts | 85° |
| 2026-05-01 12:15 | 51.54365 | -2.51344 | 9315 ft | 313 kts | 85° |
| 2026-05-01 12:15 | 51.54565 | -2.47876 | 9924 ft | 317 kts | 85° |
| 2026-05-01 12:15 | 51.54774 | -2.44336 | 10453 ft | 325 kts | 85° |
| 2026-05-01 12:16 | 51.55000 | -2.40558 | 10525 ft | 349 kts | 85° |
| 2026-05-01 12:16 | 51.55238 | -2.36604 | 10814 ft | 363 kts | 85° |
| 2026-05-01 12:16 | 51.55483 | -2.32560 | 11305 ft | 369 kts | 85° |
| 2026-05-01 12:16 | 51.55734 | -2.28446 | 11841 ft | 373 kts | 86° |
| 2026-05-01 12:17 | 51.55986 | -2.24252 | 12365 ft | 378 kts | 86° |
| 2026-05-01 12:17 | 51.56238 | -2.20037 | 12868 ft | 383 kts | 86° |
| 2026-05-01 12:17 | 51.56488 | -2.15806 | 13360 ft | 387 kts | 86° |
| 2026-05-01 12:17 | 51.56746 | -2.11440 | 13859 ft | 392 kts | 86° |
| 2026-05-01 12:18 | 51.57001 | -2.07077 | 14339 ft | 396 kts | 86° |
| 2026-05-01 12:18 | 51.57257 | -2.02671 | 14812 ft | 400 kts | 86° |
| 2026-05-01 12:18 | 51.57513 | -1.98225 | 15271 ft | 404 kts | 86° |
| 2026-05-01 12:18 | 51.57773 | -1.93699 | 15728 ft | 408 kts | 86° |
| 2026-05-01 12:19 | 51.58031 | -1.89164 | 16166 ft | 412 kts | 86° |
| 2026-05-01 12:19 | 51.58294 | -1.84532 | 16604 ft | 416 kts | 86° |
| 2026-05-01 12:19 | 51.58555 | -1.79884 | 17038 ft | 420 kts | 86° |
| 2026-05-01 12:19 | 51.58818 | -1.75186 | 17454 ft | 424 kts | 86° |
| 2026-05-01 12:20 | 51.59079 | -1.70473 | 17859 ft | 427 kts | 86° |
| 2026-05-01 12:20 | 51.59341 | -1.65706 | 18260 ft | 431 kts | 86° |
| 2026-05-01 12:20 | 51.59603 | -1.60930 | 18653 ft | 435 kts | 86° |
| 2026-05-01 12:20 | 51.59868 | -1.56043 | 19044 ft | 438 kts | 86° |
| 2026-05-01 12:21 | 51.60135 | -1.51133 | 19428 ft | 442 kts | 86° |
| 2026-05-01 12:21 | 51.60407 | -1.46241 | 19797 ft | 445 kts | 86° |
| 2026-05-01 12:21 | 51.60682 | -1.41234 | 20169 ft | 449 kts | 86° |
| 2026-05-01 12:21 | 51.60954 | -1.36223 | 20527 ft | 452 kts | 86° |
| 2026-05-01 12:22 | 51.61226 | -1.31168 | 20878 ft | 455 kts | 87° |
| 2026-05-01 12:22 | 51.61408 | -1.27801 | 21097 ft | 457 kts | 87° |
| 2026-05-01 12:22 | 51.61768 | -1.21036 | 21530 ft | 461 kts | 88° |
| 2026-05-01 12:22 | 51.62040 | -1.15847 | 21845 ft | 464 kts | 88° |
| 2026-05-01 12:23 | 51.62306 | -1.10692 | 22151 ft | 468 kts | 88° |
| 2026-05-01 12:23 | 51.62515 | -1.05438 | 22447 ft | 470 kts | 91° |
| 2026-05-01 12:23 | 51.62485 | -1.00206 | 22715 ft | 470 kts | 100° |
| 2026-05-01 12:23 | 51.61820 | -0.95073 | 22999 ft | 464 kts | 114° |
| 2026-05-01 12:24 | 51.60686 | -0.90291 | 23337 ft | 462 kts | 119° |
| 2026-05-01 12:24 | 51.59444 | -0.85497 | 23590 ft | 466 kts | 119° |
| 2026-05-01 12:24 | 51.58192 | -0.80699 | 23887 ft | 468 kts | 120° |
| 2026-05-01 12:24 | 51.56929 | -0.75851 | 24173 ft | 471 kts | 119° |
| 2026-05-01 12:25 | 51.55677 | -0.71037 | 24451 ft | 474 kts | 119° |
| 2026-05-01 12:25 | 51.53138 | -0.61249 | 24995 ft | 479 kts | 119° |
| 2026-05-01 12:25 | 51.51845 | -0.56256 | 25267 ft | 481 kts | 119° |
| 2026-05-01 12:26 | 51.50696 | -0.51242 | 25513 ft | 489 kts | 113° |
| 2026-05-01 12:26 | 51.49273 | -0.40378 | 26020 ft | 503 kts | 100° |
| 2026-05-01 12:26 | 51.49050 | -0.34804 | 26260 ft | 509 kts | 94° |
| 2026-05-01 12:27 | 51.49090 | -0.29108 | 26499 ft | 512 kts | 91° |
| 2026-05-01 12:27 | 51.49573 | -0.17591 | 26941 ft | 518 kts | 87° |
| 2026-05-01 12:28 | 51.50314 | -0.06085 | 27374 ft | 523 kts | 85° |
| 2026-05-01 12:28 | 51.50738 | -0.00313 | 27583 ft | 525 kts | 85° |
| 2026-05-01 12:28 | 51.51656 | 0.11378 | 27995 ft | 530 kts | 84° |
| 2026-05-01 12:29 | 51.52136 | 0.17209 | 28193 ft | 532 kts | 84° |
| 2026-05-01 12:29 | 51.52628 | 0.23108 | 28393 ft | 534 kts | 84° |
| 2026-05-01 12:29 | 51.53615 | 0.34919 | 28786 ft | 538 kts | 83° |
| 2026-05-01 12:30 | 51.54622 | 0.46922 | 29171 ft | 542 kts | 83° |
| 2026-05-01 12:30 | 51.55135 | 0.52855 | 29358 ft | 544 kts | 83° |
| 2026-05-01 12:30 | 51.55670 | 0.58940 | 29540 ft | 546 kts | 83° |
| 2026-05-01 12:31 | 51.56205 | 0.64903 | 29722 ft | 548 kts | 82° |
| 2026-05-01 12:31 | 51.56771 | 0.71032 | 29893 ft | 550 kts | 83° |
| 2026-05-01 12:31 | 51.57331 | 0.77059 | 30045 ft | 552 kts | 83° |
| 2026-05-01 12:31 | 51.57894 | 0.83138 | 30201 ft | 554 kts | 83° |
| 2026-05-01 12:32 | 51.58472 | 0.89320 | 30360 ft | 555 kts | 83° |
| 2026-05-01 12:32 | 51.59631 | 1.01531 | 30733 ft | 557 kts | 82° |
| 2026-05-01 12:32 | 51.60216 | 1.07652 | 30966 ft | 557 kts | 83° |
| 2026-05-01 12:33 | 51.60797 | 1.13847 | 31199 ft | 556 kts | 83° |
| 2026-05-01 12:33 | 51.61373 | 1.19958 | 31434 ft | 556 kts | 82° |
| 2026-05-01 12:33 | 51.61960 | 1.26086 | 31637 ft | 556 kts | 82° |
| 2026-05-01 12:33 | 51.62558 | 1.32194 | 31837 ft | 557 kts | 82° |
| 2026-05-01 12:34 | 51.63150 | 1.38314 | 32034 ft | 557 kts | 82° |
| 2026-05-01 12:34 | 51.63742 | 1.44470 | 32228 ft | 557 kts | 82° |
| 2026-05-01 12:34 | 51.64343 | 1.50646 | 32420 ft | 558 kts | 82° |
| 2026-05-01 12:34 | 51.64951 | 1.56806 | 32611 ft | 558 kts | 81° |
| 2026-05-01 12:35 | 51.65570 | 1.62969 | 32810 ft | 559 kts | 82° |
| 2026-05-01 12:35 | 51.66187 | 1.69170 | 32995 ft | 559 kts | 82° |
| 2026-05-01 12:35 | 51.66811 | 1.75306 | 33153 ft | 559 kts | 82° |
| 2026-05-01 12:35 | 51.67430 | 1.81444 | 33317 ft | 560 kts | 82° |
| 2026-05-01 12:36 | 51.68063 | 1.87703 | 33481 ft | 560 kts | 82° |
| 2026-05-01 12:36 | 51.68687 | 1.93824 | 33640 ft | 561 kts | 82° |
| 2026-05-01 12:36 | 51.69324 | 2.00048 | 33804 ft | 561 kts | 82° |
| 2026-05-01 12:36 | 51.69958 | 2.06224 | 33965 ft | 561 kts | 82° |
| 2026-05-01 12:37 | 51.70597 | 2.12415 | 34138 ft | 561 kts | 81° |
| 2026-05-01 12:37 | 51.71241 | 2.18606 | 34331 ft | 561 kts | 81° |
| 2026-05-01 12:37 | 51.71881 | 2.24739 | 34514 ft | 561 kts | 81° |
| 2026-05-01 12:37 | 51.72532 | 2.30941 | 34703 ft | 560 kts | 81° |
| 2026-05-01 12:38 | 51.73189 | 2.37101 | 34890 ft | 560 kts | 81° |
| 2026-05-01 12:38 | 51.73847 | 2.43287 | 35078 ft | 559 kts | 81° |
| 2026-05-01 12:38 | 51.74497 | 2.49451 | 35207 ft | 560 kts | 81° |
| 2026-05-01 12:38 | 51.75153 | 2.55612 | 35208 ft | 561 kts | 81° |
| 2026-05-01 12:39 | 51.76499 | 2.67953 | 35209 ft | 557 kts | 81° |
| 2026-05-01 12:39 | 51.77851 | 2.80221 | 35210 ft | 556 kts | 81° |
| 2026-05-01 12:40 | 51.79208 | 2.92475 | 35315 ft | 558 kts | 80° |
| 2026-05-01 12:40 | 51.79898 | 2.98664 | 35466 ft | 558 kts | 80° |
| 2026-05-01 12:40 | 51.80587 | 3.04840 | 35623 ft | 558 kts | 79° |
| 2026-05-01 12:41 | 51.81275 | 3.10988 | 35798 ft | 557 kts | 78° |
| 2026-05-01 12:41 | 51.81960 | 3.17117 | 35960 ft | 556 kts | 78° |
| 2026-05-01 12:41 | 51.82639 | 3.23220 | 36110 ft | 556 kts | 78° |
| 2026-05-01 12:41 | 51.83320 | 3.29332 | 36256 ft | 556 kts | 78° |
| 2026-05-01 12:42 | 51.84011 | 3.35473 | 36415 ft | 556 kts | 78° |
| 2026-05-01 12:42 | 51.84707 | 3.41582 | 36572 ft | 556 kts | 78° |
| 2026-05-01 12:42 | 51.85410 | 3.47690 | 36724 ft | 556 kts | 78° |
| 2026-05-01 12:42 | 51.86127 | 3.53887 | 36878 ft | 556 kts | 78° |
| 2026-05-01 12:43 | 51.86836 | 3.60007 | 37028 ft | 555 kts | 77° |
| 2026-05-01 12:43 | 51.87538 | 3.66060 | 37168 ft | 556 kts | 78° |
| 2026-05-01 12:43 | 51.88267 | 3.72263 | 37285 ft | 555 kts | 78° |
| 2026-05-01 12:43 | 51.88987 | 3.78324 | 37399 ft | 555 kts | 78° |
| 2026-05-01 12:44 | 51.89720 | 3.84493 | 37517 ft | 555 kts | 78° |
| 2026-05-01 12:44 | 51.90445 | 3.90589 | 37632 ft | 555 kts | 78° |
| 2026-05-01 12:44 | 51.91904 | 4.02872 | 37870 ft | 555 kts | 78° |
| 2026-05-01 12:45 | 51.93367 | 4.15073 | 38110 ft | 555 kts | 77° |
| 2026-05-01 12:45 | 51.94112 | 4.21248 | 38234 ft | 555 kts | 77° |
| 2026-05-01 12:45 | 51.94850 | 4.27347 | 38359 ft | 555 kts | 77° |
| 2026-05-01 12:46 | 51.95593 | 4.33449 | 38507 ft | 555 kts | 77° |
| 2026-05-01 12:46 | 51.96346 | 4.39624 | 38646 ft | 555 kts | 77° |
| 2026-05-01 12:46 | 51.97076 | 4.45721 | 38782 ft | 556 kts | 79° |
| 2026-05-01 12:46 | 51.97626 | 4.51900 | 38918 ft | 556 kts | 82° |
| 2026-05-01 12:47 | 51.98103 | 4.58074 | 39054 ft | 556 kts | 82° |
| 2026-05-01 12:47 | 51.98575 | 4.64313 | 39188 ft | 556 kts | 82° |
| 2026-05-01 12:47 | 51.99522 | 4.76762 | 39255 ft | 558 kts | 83° |
| 2026-05-01 12:48 | 52.00457 | 4.89196 | 39263 ft | 554 kts | 83° |
| 2026-05-01 12:48 | 52.01359 | 5.01465 | 39263 ft | 546 kts | 82° |
| 2026-05-01 12:49 | 52.02238 | 5.13614 | 39263 ft | 543 kts | 82° |
| 2026-05-01 12:49 | 52.03106 | 5.25806 | 39264 ft | 545 kts | 82° |
| 2026-05-01 12:50 | 52.03961 | 5.38004 | 39269 ft | 547 kts | 83° |
| 2026-05-01 12:50 | 52.04807 | 5.50277 | 39277 ft | 546 kts | 83° |
| 2026-05-01 12:51 | 52.05633 | 5.62441 | 39283 ft | 545 kts | 83° |
| 2026-05-01 12:52 | 52.06874 | 5.80819 | 39290 ft | 545 kts | 83° |
| 2026-05-01 12:52 | 52.08076 | 5.99162 | 39290 ft | 546 kts | 84° |
| 2026-05-01 12:53 | 52.09241 | 6.17474 | 39290 ft | 546 kts | 84° |
| 2026-05-01 12:54 | 52.10003 | 6.29739 | 39290 ft | 546 kts | 84° |
| 2026-05-01 12:54 | 52.11116 | 6.48069 | 39290 ft | 546 kts | 84° |
| 2026-05-01 12:55 | 52.12204 | 6.66444 | 39289 ft | 546 kts | 84° |
| 2026-05-01 12:56 | 52.12928 | 6.78718 | 39293 ft | 545 kts | 84° |
| 2026-05-01 12:56 | 52.13636 | 6.91004 | 39305 ft | 545 kts | 84° |
| 2026-05-01 12:57 | 52.14319 | 7.03189 | 39315 ft | 545 kts | 84° |
| 2026-05-01 12:57 | 52.15321 | 7.21570 | 39316 ft | 538 kts | 83° |
| 2026-05-01 12:58 | 52.15960 | 7.33591 | 39318 ft | 536 kts | 83° |
| 2026-05-01 12:59 | 52.16902 | 7.51757 | 39318 ft | 539 kts | 83° |
| 2026-05-01 12:59 | 52.17814 | 7.69856 | 39316 ft | 538 kts | 83° |
| 2026-05-01 13:00 | 52.18719 | 7.88061 | 39317 ft | 538 kts | 83° |
| 2026-05-01 13:01 | 52.19581 | 8.06217 | 39317 ft | 539 kts | 83° |
| 2026-05-01 13:02 | 52.20283 | 8.22755 | 39317 ft | 539 kts | 90° |
| 2026-05-01 13:07 | 52.13959 | 9.55952 | 39371 ft | 535 kts | 93° |
| 2026-05-01 13:08 | 52.13315 | 9.68015 | 39370 ft | 535 kts | 94° |
| 2026-05-01 13:08 | 52.12676 | 9.79993 | 39371 ft | 534 kts | 94° |
| 2026-05-01 13:09 | 52.12017 | 9.92010 | 39371 ft | 535 kts | 94° |
| 2026-05-01 13:09 | 52.11341 | 10.04034 | 39371 ft | 535 kts | 94° |
| 2026-05-01 13:10 | 52.10652 | 10.16016 | 39371 ft | 535 kts | 94° |
| 2026-05-01 13:10 | 52.09945 | 10.28076 | 39371 ft | 535 kts | 94° |
| 2026-05-01 13:11 | 52.09227 | 10.40101 | 39371 ft | 535 kts | 94° |
| 2026-05-01 13:11 | 52.08501 | 10.52068 | 39371 ft | 535 kts | 94° |
| 2026-05-01 13:12 | 52.07756 | 10.64119 | 39371 ft | 535 kts | 94° |
| 2026-05-01 13:12 | 52.07018 | 10.76043 | 39371 ft | 535 kts | 95° |
| 2026-05-01 13:13 | 52.06263 | 10.88026 | 39377 ft | 535 kts | 94° |
| 2026-05-01 13:13 | 52.05488 | 11.00044 | 39390 ft | 534 kts | 92° |
| 2026-05-01 13:14 | 52.04704 | 11.11965 | 39397 ft | 532 kts | 92° |
| 2026-05-01 13:14 | 52.03907 | 11.23875 | 39398 ft | 531 kts | 92° |
| 2026-05-01 13:15 | 52.03101 | 11.35730 | 39399 ft | 532 kts | 92° |
| 2026-05-01 13:15 | 52.02276 | 11.47690 | 39398 ft | 532 kts | 92° |
| 2026-05-01 13:16 | 52.01441 | 11.59601 | 39398 ft | 532 kts | 92° |
| 2026-05-01 13:16 | 52.00602 | 11.71423 | 39397 ft | 532 kts | 94° |
| 2026-05-01 13:17 | 51.96901 | 11.94684 | 39398 ft | 537 kts | 103° |
| 2026-05-01 13:18 | 51.93912 | 12.12159 | 39398 ft | 536 kts | 103° |
| 2026-05-01 13:18 | 51.91910 | 12.23775 | 39398 ft | 536 kts | 103° |
| 2026-05-01 13:19 | 51.89901 | 12.35355 | 39398 ft | 536 kts | 103° |
| 2026-05-01 13:20 | 51.86862 | 12.52737 | 39398 ft | 536 kts | 103° |
| 2026-05-01 13:20 | 51.84822 | 12.64308 | 39398 ft | 536 kts | 103° |
| 2026-05-01 13:21 | 51.81752 | 12.81684 | 39391 ft | 537 kts | 104° |
| 2026-05-01 13:21 | 51.79698 | 12.93190 | 39383 ft | 537 kts | 104° |
| 2026-05-01 13:22 | 51.77613 | 13.04773 | 39379 ft | 536 kts | 104° |
| 2026-05-01 13:22 | 51.75534 | 13.16233 | 39374 ft | 531 kts | 102° |
| 2026-05-01 13:23 | 51.73468 | 13.27549 | 39373 ft | 526 kts | 102° |
| 2026-05-01 13:23 | 51.71405 | 13.38786 | 39385 ft | 527 kts | 102° |
| 2026-05-01 13:24 | 51.69314 | 13.50102 | 39395 ft | 529 kts | 102° |
| 2026-05-01 13:25 | 51.66149 | 13.67097 | 39397 ft | 528 kts | 103° |
| 2026-05-01 13:25 | 51.64049 | 13.78358 | 39398 ft | 528 kts | 103° |
| 2026-05-01 13:26 | 51.61917 | 13.89691 | 39398 ft | 528 kts | 103° |
| 2026-05-01 13:26 | 51.59787 | 14.00929 | 39398 ft | 529 kts | 103° |
| 2026-05-01 13:27 | 51.57630 | 14.12221 | 39398 ft | 529 kts | 103° |
| 2026-05-01 13:27 | 51.54381 | 14.29099 | 39398 ft | 528 kts | 103° |
| 2026-05-01 13:28 | 51.51113 | 14.45923 | 39398 ft | 528 kts | 103° |
| 2026-05-01 13:29 | 51.46723 | 14.68302 | 39395 ft | 528 kts | 104° |
| 2026-05-01 13:31 | 51.39669 | 15.01540 | 39364 ft | 511 kts | 111° |
| 2026-05-01 13:31 | 51.35638 | 15.16640 | 39343 ft | 482 kts | 110° |
| 2026-05-01 13:32 | 51.33069 | 15.26545 | 39346 ft | 487 kts | 110° |
| 2026-05-01 13:33 | 51.26601 | 15.51606 | 39343 ft | 489 kts | 110° |
| 2026-05-01 13:34 | 51.21423 | 15.71613 | 39344 ft | 489 kts | 111° |
| 2026-05-01 13:35 | 51.17529 | 15.86597 | 39344 ft | 490 kts | 111° |
| 2026-05-01 13:36 | 51.13598 | 16.01608 | 39344 ft | 490 kts | 111° |
| 2026-05-01 13:36 | 51.09667 | 16.16510 | 39344 ft | 490 kts | 111° |
| 2026-05-01 13:37 | 51.07474 | 16.24782 | 39344 ft | 490 kts | 111° |
| 2026-05-01 13:37 | 51.04388 | 16.36371 | 39344 ft | 490 kts | 111° |
| 2026-05-01 13:38 | 51.00372 | 16.51361 | 39344 ft | 496 kts | 110° |
| 2026-05-01 13:39 | 50.97598 | 16.61384 | 39345 ft | 503 kts | 110° |
| 2026-05-01 13:39 | 50.94790 | 16.71631 | 39344 ft | 509 kts | 109° |
| 2026-05-01 13:40 | 50.91988 | 16.81973 | 39345 ft | 515 kts | 109° |
| 2026-05-01 13:40 | 50.89189 | 16.92295 | 39342 ft | 507 kts | 109° |
| 2026-05-01 13:41 | 50.86455 | 17.02350 | 39343 ft | 488 kts | 109° |
| 2026-05-01 13:41 | 50.83819 | 17.12023 | 39056 ft | 474 kts | 109° |
| 2026-05-01 13:41 | 50.82528 | 17.16757 | 38334 ft | 476 kts | 109° |
| 2026-05-01 13:42 | 50.81205 | 17.21604 | 37644 ft | 476 kts | 109° |
| 2026-05-01 13:42 | 50.79900 | 17.26371 | 36994 ft | 476 kts | 109° |
| 2026-05-01 13:42 | 50.78601 | 17.31106 | 36330 ft | 476 kts | 109° |
| 2026-05-01 13:42 | 50.77288 | 17.35886 | 35620 ft | 476 kts | 109° |
| 2026-05-01 13:43 | 50.75970 | 17.40670 | 34894 ft | 477 kts | 109° |
| 2026-05-01 13:43 | 50.74647 | 17.45465 | 34149 ft | 478 kts | 109° |
| 2026-05-01 13:43 | 50.73330 | 17.50229 | 33397 ft | 479 kts | 109° |
| 2026-05-01 13:43 | 50.71987 | 17.55079 | 32613 ft | 480 kts | 110° |
| 2026-05-01 13:44 | 50.70662 | 17.59850 | 31875 ft | 479 kts | 110° |
| 2026-05-01 13:44 | 50.69332 | 17.64629 | 31323 ft | 474 kts | 110° |
| 2026-05-01 13:44 | 50.68021 | 17.69338 | 30735 ft | 470 kts | 111° |
| 2026-05-01 13:44 | 50.66712 | 17.74038 | 30133 ft | 466 kts | 111° |
| 2026-05-01 13:45 | 50.65425 | 17.78646 | 29544 ft | 462 kts | 112° |
| 2026-05-01 13:45 | 50.64149 | 17.83206 | 29078 ft | 456 kts | 112° |
| 2026-05-01 13:45 | 50.62872 | 17.87757 | 28816 ft | 452 kts | 112° |
| 2026-05-01 13:45 | 50.61600 | 17.92278 | 28574 ft | 455 kts | 112° |
| 2026-05-01 13:46 | 50.60879 | 17.94836 | 28433 ft | 456 kts | 112° |
| 2026-05-01 13:46 | 50.59362 | 18.00044 | 28143 ft | 454 kts | 114° |
| 2026-05-01 13:46 | 50.58188 | 18.04616 | 27884 ft | 449 kts | 107° |
| 2026-05-01 13:47 | 50.57232 | 18.09240 | 27636 ft | 446 kts | 105° |
| 2026-05-01 13:47 | 50.56299 | 18.13902 | 27385 ft | 444 kts | 105° |
| 2026-05-01 13:47 | 50.55384 | 18.18497 | 27136 ft | 443 kts | 105° |
| 2026-05-01 13:47 | 50.54464 | 18.23119 | 26885 ft | 441 kts | 105° |
| 2026-05-01 13:48 | 50.53558 | 18.27669 | 26637 ft | 440 kts | 105° |
| 2026-05-01 13:48 | 50.52642 | 18.32258 | 26385 ft | 438 kts | 105° |
| 2026-05-01 13:48 | 50.51740 | 18.36773 | 26136 ft | 436 kts | 105° |
| 2026-05-01 13:48 | 50.50825 | 18.41342 | 25883 ft | 434 kts | 105° |
| 2026-05-01 13:49 | 50.49936 | 18.45780 | 25636 ft | 432 kts | 105° |
| 2026-05-01 13:49 | 50.49036 | 18.50261 | 25386 ft | 430 kts | 106° |
| 2026-05-01 13:49 | 50.48137 | 18.54724 | 25136 ft | 429 kts | 106° |
| 2026-05-01 13:49 | 50.47234 | 18.59201 | 24884 ft | 427 kts | 106° |
| 2026-05-01 13:50 | 50.46344 | 18.63600 | 24635 ft | 425 kts | 106° |
| 2026-05-01 13:50 | 50.45448 | 18.68026 | 24383 ft | 423 kts | 107° |
| 2026-05-01 13:50 | 50.44562 | 18.72403 | 24133 ft | 421 kts | 107° |
| 2026-05-01 13:50 | 50.43677 | 18.76761 | 23883 ft | 419 kts | 107° |
| 2026-05-01 13:51 | 50.42795 | 18.81093 | 23633 ft | 417 kts | 107° |
| 2026-05-01 13:51 | 50.41914 | 18.85407 | 23383 ft | 416 kts | 107° |
| 2026-05-01 13:51 | 50.41035 | 18.89702 | 23132 ft | 414 kts | 107° |
| 2026-05-01 13:51 | 50.40161 | 18.93957 | 22884 ft | 412 kts | 107° |
| 2026-05-01 13:52 | 50.39283 | 18.98226 | 22527 ft | 411 kts | 108° |
| 2026-05-01 13:52 | 50.38410 | 19.02454 | 22148 ft | 405 kts | 108° |
| 2026-05-01 13:52 | 50.37555 | 19.06587 | 21772 ft | 399 kts | 108° |
| 2026-05-01 13:52 | 50.36700 | 19.10708 | 21396 ft | 394 kts | 108° |
| 2026-05-01 13:53 | 50.35865 | 19.14723 | 21024 ft | 390 kts | 109° |
| 2026-05-01 13:53 | 50.34198 | 19.22708 | 20275 ft | 383 kts | 109° |
| 2026-05-01 13:53 | 50.33374 | 19.26645 | 19900 ft | 380 kts | 109° |
| 2026-05-01 13:54 | 50.32550 | 19.30567 | 19524 ft | 378 kts | 109° |
| 2026-05-01 13:54 | 50.31733 | 19.34450 | 19149 ft | 376 kts | 109° |
| 2026-05-01 13:54 | 50.30922 | 19.38242 | 18601 ft | 374 kts | 110° |
| 2026-05-01 13:54 | 50.30092 | 19.42116 | 18016 ft | 373 kts | 110° |
| 2026-05-01 13:55 | 50.29275 | 19.45946 | 17435 ft | 367 kts | 110° |
| 2026-05-01 13:55 | 50.28471 | 19.49717 | 16474 ft | 367 kts | 110° |
| 2026-05-01 13:55 | 50.27670 | 19.53473 | 15464 ft | 366 kts | 110° |
| 2026-05-01 13:55 | 50.26875 | 19.57201 | 14461 ft | 365 kts | 110° |
| 2026-05-01 13:56 | 50.26082 | 19.60918 | 13452 ft | 362 kts | 110° |
| 2026-05-01 13:56 | 50.25293 | 19.64610 | 12532 ft | 356 kts | 110° |
| 2026-05-01 13:56 | 50.24516 | 19.68240 | 11839 ft | 344 kts | 111° |
| 2026-05-01 13:56 | 50.23775 | 19.71686 | 11363 ft | 334 kts | 111° |
| 2026-05-01 13:57 | 50.23040 | 19.75086 | 10887 ft | 331 kts | 110° |
| 2026-05-01 13:57 | 50.22551 | 19.77350 | 10579 ft | 328 kts | 110° |
| 2026-05-01 13:57 | 50.21601 | 19.81744 | 10302 ft | 313 kts | 110° |
| 2026-05-01 13:57 | 50.20916 | 19.84892 | 10236 ft | 298 kts | 110° |
| 2026-05-01 13:58 | 50.20264 | 19.87880 | 10033 ft | 291 kts | 110° |
| 2026-05-01 13:58 | 50.19663 | 19.90906 | 9586 ft | 293 kts | 104° |
| 2026-05-01 13:58 | 50.19370 | 19.94067 | 9208 ft | 292 kts | 92° |
| 2026-05-01 13:58 | 50.19468 | 19.97188 | 8816 ft | 291 kts | 81° |
| 2026-05-01 13:59 | 50.19823 | 20.00309 | 8439 ft | 290 kts | 77° |
| 2026-05-01 13:59 | 50.20237 | 20.03365 | 8114 ft | 287 kts | 77° |
| 2026-05-01 13:59 | 50.20650 | 20.06367 | 7927 ft | 278 kts | 77° |
| 2026-05-01 13:59 | 50.21045 | 20.09268 | 7830 ft | 271 kts | 77° |
| 2026-05-01 14:00 | 50.21442 | 20.12200 | 7614 ft | 280 kts | 78° |
| 2026-05-01 14:00 | 50.21464 | 20.15201 | 7195 ft | 282 kts | 103° |
| 2026-05-01 14:00 | 50.20649 | 20.17952 | 6802 ft | 281 kts | 130° |
| 2026-05-01 14:00 | 50.19147 | 20.19843 | 6380 ft | 278 kts | 155° |
| 2026-05-01 14:01 | 50.17330 | 20.20712 | 5771 ft | 277 kts | 179° |
| 2026-05-01 14:01 | 50.15464 | 20.20131 | 5331 ft | 273 kts | 207° |
| 2026-05-01 14:01 | 50.13961 | 20.18447 | 5000 ft | 266 kts | 230° |
| 2026-05-01 14:01 | 50.13031 | 20.16114 | 5014 ft | 244 kts | 251° |
| 2026-05-01 14:02 | 50.12560 | 20.13614 | 5028 ft | 235 kts | 259° |
| 2026-05-01 14:02 | 50.12226 | 20.11135 | 4778 ft | 235 kts | 261° |
| 2026-05-01 14:02 | 50.11912 | 20.08710 | 4605 ft | 219 kts | 261° |
| 2026-05-01 14:02 | 50.11608 | 20.06431 | 4254 ft | 213 kts | 261° |
| 2026-05-01 14:03 | 50.11308 | 20.04202 | 3938 ft | 205 kts | 261° |
| 2026-05-01 14:03 | 50.11020 | 20.02085 | 3647 ft | 198 kts | 261° |
| 2026-05-01 14:03 | 50.10742 | 20.00044 | 3385 ft | 190 kts | 261° |
| 2026-05-01 14:03 | 50.10471 | 19.98062 | 3131 ft | 184 kts | 261° |
| 2026-05-01 14:04 | 50.10208 | 19.96143 | 2885 ft | 179 kts | 261° |
| 2026-05-01 14:04 | 50.09950 | 19.94249 | 2643 ft | 178 kts | 261° |
| 2026-05-01 14:04 | 50.09696 | 19.92403 | 2417 ft | 169 kts | 261° |
| 2026-05-01 14:04 | 50.09537 | 19.91254 | 2260 ft | 156 kts | 261° |
| 2026-05-01 14:05 | 50.09243 | 19.89110 | 1979 ft | 151 kts | 262° |
| 2026-05-01 14:05 | 50.09023 | 19.87503 | 1777 ft | 152 kts | 262° |
| 2026-05-01 14:05 | 50.08801 | 19.85899 | 1566 ft | 149 kts | 261° |
| 2026-05-01 14:05 | 50.08583 | 19.84327 | 1384 ft | 151 kts | 261° |
| 2026-05-01 14:06 | 50.08361 | 19.82726 | 1166 ft | 150 kts | 261° |
| 2026-05-01 14:06 | 50.08136 | 19.81113 | 960 ft | 153 kts | 262° |
| 2026-05-01 14:06 | 50.07914 | 19.79515 | 786 ft | 145 kts | 261° |
| 2026-05-01 14:06 | 50.07742 | 19.78237 | 777 ft | 84 kts | 258° |
| 2026-05-01 14:07 | 50.07661 | 19.77666 | 780 ft | 31 kts | 258° |
| 2026-05-01 14:07 | 50.07621 | 19.77371 | 783 ft | 26 kts | 258° |
| 2026-05-01 14:07 | 50.07587 | 19.77118 | 785 ft | 21 kts | 258° |
| 2026-05-01 14:08 | 50.07494 | 19.76845 | 783 ft | 6 kts | 178° |
| 2026-05-01 14:08 | 50.07445 | 19.76858 | 782 ft | 8 kts | 162° |
| 2026-05-01 14:08 | 50.07371 | 19.76889 | 781 ft | 10 kts | 168° |
| 2026-05-01 14:08 | 50.07307 | 19.76933 | 780 ft | 7 kts | 101° |
| 2026-05-01 14:09 | 50.07316 | 19.77024 | 780 ft | 9 kts | 77° |
| 2026-05-01 14:09 | 50.07332 | 19.77132 | 780 ft | 11 kts | 77° |
| 2026-05-01 14:09 | 50.07348 | 19.77244 | 781 ft | 7 kts | 79° |
| 2026-05-01 14:09 | 50.07357 | 19.77320 | 781 ft | 6 kts | 78° |
| 2026-05-01 14:10 | 50.07371 | 19.77414 | 780 ft | 11 kts | 77° |
| 2026-05-01 14:10 | 50.07390 | 19.77554 | 780 ft | 13 kts | 78° |
| 2026-05-01 14:10 | 50.07410 | 19.77694 | 780 ft | 13 kts | 78° |
| 2026-05-01 14:10 | 50.07431 | 19.77848 | 777 ft | 15 kts | 78° |
| 2026-05-01 14:11 | 50.07453 | 19.78004 | 777 ft | 14 kts | 78° |
| 2026-05-01 14:11 | 50.07495 | 19.78305 | 777 ft | 14 kts | 78° |
| 2026-05-01 14:11 | 50.07518 | 19.78469 | 777 ft | 16 kts | 78° |
| 2026-05-01 14:12 | 50.07542 | 19.78647 | 777 ft | 16 kts | 78° |
| 2026-05-01 14:12 | 50.07566 | 19.78815 | 777 ft | 15 kts | 78° |
| 2026-05-01 14:12 | 50.07587 | 19.78971 | 779 ft | 14 kts | 78° |
| 2026-05-01 14:12 | 50.07608 | 19.79120 | 778 ft | 14 kts | 77° |
| 2026-05-01 14:13 | 50.07629 | 19.79270 | 778 ft | 14 kts | 79° |
| 2026-05-01 14:13 | 50.07644 | 19.79378 | 777 ft | 15 kts | 78° |
| 2026-05-01 14:13 | 50.07677 | 19.79607 | 777 ft | 16 kts | 76° |
| 2026-05-01 14:13 | 50.07699 | 19.79772 | 777 ft | 15 kts | 78° |
| 2026-05-01 14:14 | 50.07717 | 19.79904 | 776 ft | 7 kts | 84° |
| 2026-05-01 14:14 | 50.07682 | 19.79972 | 774 ft | 9 kts | 180° |
| 2026-05-01 14:14 | 50.07618 | 19.79937 | 775 ft | 10 kts | 206° |
| 2026-05-01 14:14 | 50.07549 | 19.79920 | 775 ft | 10 kts | 167° |
| 2026-05-01 14:15 | 50.07481 | 19.79941 | 775 ft | 6 kts | 169° |
| 2026-05-01 14:15 | 50.07454 | 19.79949 | 776 ft | 4 kts | 168° |
| 2026-05-01 14:15 | 50.07416 | 19.79972 | 776 ft | 7 kts | 143° |
| 2026-05-01 14:15 | 50.07404 | 19.80059 | 774 ft | 8 kts | 77° |
| 2026-05-01 14:16 | 50.07407 | 19.80083 | 774 ft | 3 kts | 77° |
| 2026-05-01 14:16 | 50.07427 | 19.80148 | 774 ft | 6 kts | 28° |
| 2026-05-01 14:16 | 50.07480 | 19.80141 | 774 ft | 4 kts | 347° |
| 2026-05-01 14:16 | 50.07482 | 19.80141 | 774 ft | 0 kts | 347° |